createdAt,value
2023-01-09T00:00:11.210Z,982.18
2023-01-09T00:01:11.136Z,982.10
2023-01-09T00:02:11.176Z,982.09
2023-01-09T00:03:11.116Z,982.07
2023-01-09T00:04:11.361Z,982.11
2023-01-09T00:05:11.092Z,982.03
2023-01-09T00:06:11.091Z,982.06
2023-01-09T00:07:11.064Z,982.16
2023-01-09T00:08:11.045Z,982.13
2023-01-09T00:09:11.056Z,982.03
2023-01-09T00:10:11.230Z,982.06
2023-01-09T00:11:11.012Z,982.11
2023-01-09T00:12:10.993Z,982.16
2023-01-09T00:13:10.983Z,982.10
2023-01-09T00:14:11.243Z,982.17
2023-01-09T00:15:11.124Z,982.19
2023-01-09T00:16:11.163Z,982.19
2023-01-09T00:17:10.932Z,982.10
2023-01-09T00:18:10.945Z,982.16
2023-01-09T00:19:10.916Z,982.12
2023-01-09T00:20:11.074Z,982.19
2023-01-09T00:21:10.885Z,982.20
2023-01-09T00:22:10.882Z,982.08
2023-01-09T00:23:10.857Z,982.14
2023-01-09T00:24:10.876Z,982.11
2023-01-09T00:25:10.832Z,982.12
2023-01-09T00:26:10.810Z,982.13
2023-01-09T00:27:10.977Z,982.12
2023-01-09T00:28:10.973Z,982.17
2023-01-09T00:29:10.778Z,982.08
2023-01-09T00:30:10.801Z,982.11
2023-01-09T00:31:10.746Z,982.27
2023-01-09T00:32:10.742Z,982.20
2023-01-09T00:33:10.962Z,982.15
2023-01-09T00:34:10.896Z,982.20
2023-01-09T00:35:10.704Z,982.16
2023-01-09T00:36:10.688Z,982.15
2023-01-09T00:37:10.667Z,982.17
2023-01-09T00:38:10.677Z,982.18
2023-01-09T00:39:10.644Z,982.14
2023-01-09T00:40:10.847Z,982.22
2023-01-09T00:41:10.625Z,982.18
2023-01-09T00:42:10.616Z,982.28
2023-01-09T00:43:10.627Z,982.30
2023-01-09T00:44:10.770Z,982.11
2023-01-09T00:45:10.566Z,982.26
2023-01-09T00:46:10.599Z,982.19
2023-01-09T00:47:10.537Z,982.29
2023-01-09T00:48:10.528Z,982.15
2023-01-09T00:49:10.725Z,982.27
2023-01-09T00:50:10.506Z,982.18
2023-01-09T00:51:10.493Z,982.15
2023-01-09T00:52:10.465Z,982.26
2023-01-09T00:53:10.456Z,982.21
2023-01-09T00:54:10.624Z,982.16
2023-01-09T00:55:10.433Z,982.09
2023-01-09T00:56:10.444Z,982.07
2023-01-09T00:57:10.406Z,982.09
2023-01-09T00:58:10.415Z,982.13
2023-01-09T00:59:10.384Z,982.12
2023-01-09T01:00:10.550Z,982.15
2023-01-09T01:01:10.430Z,982.20
2023-01-09T01:02:10.569Z,982.22
2023-01-09T01:03:10.331Z,982.24
2023-01-09T01:04:10.342Z,982.26
2023-01-09T01:05:10.473Z,982.23
2023-01-09T01:06:10.283Z,982.25
2023-01-09T01:07:10.453Z,982.26
2023-01-09T01:08:10.270Z,982.27
2023-01-09T01:09:10.269Z,982.34
2023-01-09T01:10:10.246Z,982.30
2023-01-09T01:11:10.242Z,982.33
2023-01-09T01:12:10.214Z,982.30
2023-01-09T01:13:10.201Z,982.13
2023-01-09T01:14:10.184Z,982.25
2023-01-09T01:15:10.171Z,982.24
2023-01-09T01:16:10.344Z,982.26
2023-01-09T01:17:10.159Z,982.36
2023-01-09T01:18:10.136Z,982.38
2023-01-09T01:19:10.119Z,982.39
2023-01-09T01:20:10.112Z,982.29
2023-01-09T01:21:10.285Z,982.31
2023-01-09T01:22:10.167Z,982.38
2023-01-09T01:23:10.073Z,982.40
2023-01-09T01:24:10.048Z,982.36
2023-01-09T01:25:10.040Z,982.30
2023-01-09T01:26:10.027Z,982.36
2023-01-09T01:27:10.030Z,982.42
2023-01-09T01:28:10.036Z,982.37
2023-01-09T01:29:09.991Z,982.40
2023-01-09T01:30:09.966Z,982.40
2023-01-09T01:31:10.017Z,982.47
2023-01-09T01:32:09.944Z,982.43
2023-01-09T01:33:10.119Z,982.39
2023-01-09T01:34:09.929Z,982.41
2023-01-09T01:35:09.968Z,982.38
2023-01-09T01:36:09.890Z,982.26
2023-01-09T01:37:09.886Z,982.37
2023-01-09T01:38:09.871Z,982.35
2023-01-09T01:39:10.046Z,982.34
2023-01-09T01:40:09.875Z,982.39
2023-01-09T01:41:09.841Z,982.41
2023-01-09T01:42:09.817Z,982.38
2023-01-09T01:43:09.804Z,982.45
2023-01-09T01:44:09.974Z,982.51
2023-01-09T01:45:09.784Z,982.50
2023-01-09T01:46:09.874Z,982.58
2023-01-09T01:47:09.756Z,982.62
2023-01-09T01:48:09.744Z,982.55
2023-01-09T01:49:09.974Z,982.65
2023-01-09T01:50:09.723Z,982.54
2023-01-09T01:51:09.706Z,982.70
2023-01-09T01:52:09.694Z,982.62
2023-01-09T01:53:09.692Z,982.68
2023-01-09T01:54:09.835Z,982.66
2023-01-09T01:55:09.648Z,982.77
2023-01-09T01:56:09.835Z,982.78
2023-01-09T01:57:09.625Z,982.73
2023-01-09T01:58:09.602Z,982.77
2023-01-09T01:59:09.600Z,982.68
2023-01-09T02:00:09.581Z,982.69
2023-01-09T02:01:09.680Z,982.70
2023-01-09T02:02:09.743Z,982.70
2023-01-09T02:03:09.537Z,982.72
2023-01-09T02:04:09.521Z,982.70
2023-01-09T02:05:09.524Z,982.67
2023-01-09T02:06:09.532Z,982.67
2023-01-09T02:07:09.520Z,982.73
2023-01-09T02:08:09.525Z,982.71
2023-01-09T02:09:09.499Z,982.78
2023-01-09T02:10:09.454Z,982.75
2023-01-09T02:11:09.452Z,982.69
2023-01-09T02:12:09.431Z,982.69
2023-01-09T02:13:09.423Z,982.70
2023-01-09T02:14:09.399Z,982.71
2023-01-09T02:15:09.397Z,982.74
2023-01-09T02:16:09.387Z,982.79
2023-01-09T02:17:09.547Z,982.73
2023-01-09T02:18:09.356Z,982.82
2023-01-09T02:19:09.328Z,982.83
2023-01-09T02:20:09.359Z,982.84
2023-01-09T02:21:09.307Z,982.78
2023-01-09T02:22:10.512Z,982.87
2023-01-09T02:23:09.295Z,982.92
2023-01-09T02:24:09.434Z,982.89
2023-01-09T02:25:09.255Z,982.88
2023-01-09T02:26:09.237Z,982.88
2023-01-09T02:27:09.417Z,982.88
2023-01-09T02:28:09.223Z,982.89
2023-01-09T02:29:09.200Z,982.88
2023-01-09T02:30:09.198Z,982.93
2023-01-09T02:31:09.229Z,982.93
2023-01-09T02:32:09.187Z,982.96
2023-01-09T02:33:09.147Z,982.97
2023-01-09T02:34:09.124Z,982.92
2023-01-09T02:35:09.156Z,982.99
2023-01-09T02:36:09.113Z,982.99
2023-01-09T02:37:09.261Z,983.01
2023-01-09T02:38:09.093Z,983.03
2023-01-09T02:39:09.091Z,982.97
2023-01-09T02:40:09.058Z,983.00
2023-01-09T02:41:09.058Z,982.97
2023-01-09T02:42:09.055Z,983.01
2023-01-09T02:43:09.017Z,982.94
2023-01-09T02:44:09.006Z,982.93
2023-01-09T02:45:08.991Z,982.88
2023-01-09T02:46:08.987Z,982.87
2023-01-09T02:47:09.152Z,982.91
2023-01-09T02:48:08.962Z,982.87
2023-01-09T02:49:08.930Z,982.87
2023-01-09T02:50:08.960Z,982.88
2023-01-09T02:51:08.921Z,982.88
2023-01-09T02:52:08.911Z,982.89
2023-01-09T02:53:08.883Z,982.90
2023-01-09T02:54:08.881Z,982.90
2023-01-09T02:55:08.880Z,982.80
2023-01-09T02:56:09.030Z,982.88
2023-01-09T02:57:09.014Z,982.87
2023-01-09T02:58:08.819Z,983.00
2023-01-09T02:59:08.805Z,982.89
2023-01-09T03:00:08.819Z,982.86
2023-01-09T03:01:08.897Z,982.85
2023-01-09T03:02:08.763Z,982.85
2023-01-09T03:03:08.777Z,982.85
2023-01-09T03:04:08.744Z,982.86
2023-01-09T03:05:08.717Z,982.89
2023-01-09T03:06:08.904Z,982.88
2023-01-09T03:07:08.701Z,982.83
2023-01-09T03:08:08.704Z,982.86
2023-01-09T03:09:08.671Z,982.90
2023-01-09T03:10:08.654Z,982.95
2023-01-09T03:11:08.807Z,982.93
2023-01-09T03:12:08.643Z,982.92
2023-01-09T03:13:08.608Z,982.92
2023-01-09T03:14:08.608Z,982.90
2023-01-09T03:15:08.601Z,982.87
2023-01-09T03:16:08.640Z,982.89
2023-01-09T03:17:08.570Z,982.88
2023-01-09T03:18:09.514Z,982.93
2023-01-09T03:19:08.591Z,982.92
2023-01-09T03:20:08.526Z,982.91
2023-01-09T03:21:08.531Z,982.99
2023-01-09T03:22:08.516Z,982.97
2023-01-09T03:23:08.698Z,983.00
2023-01-09T03:24:08.475Z,983.04
2023-01-09T03:25:08.467Z,983.09
2023-01-09T03:26:09.215Z,983.05
2023-01-09T03:27:08.444Z,983.13
2023-01-09T03:28:08.598Z,983.21
2023-01-09T03:29:08.413Z,983.13
2023-01-09T03:30:08.572Z,983.14
2023-01-09T03:31:08.494Z,983.16
2023-01-09T03:32:08.386Z,983.27
2023-01-09T03:33:08.604Z,983.21
2023-01-09T03:34:08.384Z,983.28
2023-01-09T03:35:08.505Z,983.25
2023-01-09T03:36:08.313Z,983.28
2023-01-09T03:37:08.308Z,983.28
2023-01-09T03:38:08.315Z,983.38
2023-01-09T03:39:08.290Z,983.33
2023-01-09T03:40:08.472Z,983.31
2023-01-09T03:41:08.260Z,983.42
2023-01-09T03:42:08.254Z,983.38
2023-01-09T03:43:08.241Z,983.41
2023-01-09T03:44:08.218Z,983.51
2023-01-09T03:45:08.385Z,983.62
2023-01-09T03:46:08.217Z,983.54
2023-01-09T03:47:08.181Z,983.48
2023-01-09T03:48:08.181Z,983.51
2023-01-09T03:49:08.167Z,983.48
2023-01-09T03:50:08.153Z,983.46
2023-01-09T03:51:08.131Z,983.49
2023-01-09T03:52:08.177Z,983.50
2023-01-09T03:53:08.100Z,983.49
2023-01-09T03:54:08.137Z,983.52
2023-01-09T03:55:08.249Z,983.49
2023-01-09T03:56:08.066Z,983.42
2023-01-09T03:57:08.052Z,983.47
2023-01-09T03:58:08.042Z,983.55
2023-01-09T03:59:08.022Z,983.59
2023-01-09T04:00:08.289Z,983.60
2023-01-09T04:01:08.081Z,983.51
2023-01-09T04:02:08.123Z,983.65
2023-01-09T04:03:07.967Z,983.57
2023-01-09T04:04:07.987Z,983.61
2023-01-09T04:05:08.136Z,983.57
2023-01-09T04:06:08.101Z,983.59
2023-01-09T04:07:07.923Z,983.61
2023-01-09T04:08:07.918Z,983.59
2023-01-09T04:09:07.927Z,983.69
2023-01-09T04:10:07.867Z,983.67
2023-01-09T04:11:07.879Z,983.65
2023-01-09T04:12:07.847Z,983.71
2023-01-09T04:13:08.015Z,983.63
2023-01-09T04:14:07.828Z,983.73
2023-01-09T04:15:07.806Z,983.60
2023-01-09T04:16:08.037Z,983.63
2023-01-09T04:17:07.791Z,983.65
2023-01-09T04:18:07.778Z,983.73
2023-01-09T04:19:07.943Z,983.69
2023-01-09T04:20:07.738Z,983.63
2023-01-09T04:21:07.725Z,983.61
2023-01-09T04:22:07.894Z,983.60
2023-01-09T04:23:07.729Z,983.64
2023-01-09T04:24:07.867Z,983.72
2023-01-09T04:25:07.691Z,983.69
2023-01-09T04:26:07.664Z,983.64
2023-01-09T04:27:07.660Z,983.66
2023-01-09T04:28:07.670Z,983.69
2023-01-09T04:29:07.821Z,983.74
2023-01-09T04:30:07.621Z,983.73
2023-01-09T04:31:07.615Z,983.79
2023-01-09T04:32:07.582Z,983.80
2023-01-09T04:33:07.582Z,983.75
2023-01-09T04:34:07.792Z,983.78
2023-01-09T04:35:07.735Z,983.82
2023-01-09T04:36:07.562Z,983.77
2023-01-09T04:37:07.522Z,983.79
2023-01-09T04:38:07.502Z,983.75
2023-01-09T04:39:07.500Z,983.79
2023-01-09T04:40:07.481Z,983.85
2023-01-09T04:41:07.664Z,983.84
2023-01-09T04:42:07.457Z,983.84
2023-01-09T04:43:07.472Z,983.84
2023-01-09T04:44:07.433Z,983.86
2023-01-09T04:45:07.609Z,983.83
2023-01-09T04:46:07.439Z,983.80
2023-01-09T04:47:07.399Z,983.74
2023-01-09T04:48:07.546Z,983.74
2023-01-09T04:49:07.376Z,983.81
2023-01-09T04:50:07.535Z,983.77
2023-01-09T04:51:07.344Z,983.74
2023-01-09T04:52:07.331Z,983.70
2023-01-09T04:53:07.376Z,983.76
2023-01-09T04:54:07.476Z,983.80
2023-01-09T04:55:07.492Z,983.74
2023-01-09T04:56:07.266Z,983.70
2023-01-09T04:57:07.273Z,983.76
2023-01-09T04:58:07.288Z,983.73
2023-01-09T04:59:07.226Z,983.77
2023-01-09T05:00:07.395Z,983.82
2023-01-09T05:01:07.355Z,983.93
2023-01-09T05:02:07.359Z,983.94
2023-01-09T05:03:07.177Z,983.92
2023-01-09T05:04:07.383Z,983.88
2023-01-09T05:05:08.562Z,983.92
2023-01-09T05:06:07.173Z,983.93
2023-01-09T05:07:07.125Z,983.92
2023-01-09T05:08:07.115Z,983.95
2023-01-09T05:09:07.337Z,983.98
2023-01-09T05:10:07.115Z,984.01
2023-01-09T05:11:07.080Z,983.95
2023-01-09T05:12:07.065Z,983.96
2023-01-09T05:13:07.045Z,984.02
2023-01-09T05:14:07.207Z,984.06
2023-01-09T05:15:07.075Z,984.10
2023-01-09T05:16:07.026Z,984.02
2023-01-09T05:17:06.995Z,984.06
2023-01-09T05:18:06.986Z,984.06
2023-01-09T05:19:07.221Z,984.13
2023-01-09T05:20:06.964Z,984.12
2023-01-09T05:21:07.114Z,984.17
2023-01-09T05:22:06.948Z,984.25
2023-01-09T05:23:06.912Z,984.18
2023-01-09T05:24:06.909Z,984.19
2023-01-09T05:25:06.896Z,984.22
2023-01-09T05:26:07.625Z,984.30
2023-01-09T05:27:06.859Z,984.24
2023-01-09T05:28:06.861Z,984.24
2023-01-09T05:29:06.832Z,984.21
2023-01-09T05:30:06.828Z,984.25
2023-01-09T05:31:07.032Z,984.26
2023-01-09T05:32:06.827Z,984.29
2023-01-09T05:33:06.780Z,984.25
2023-01-09T05:34:06.777Z,984.31
2023-01-09T05:35:06.765Z,984.29
2023-01-09T05:36:06.742Z,984.32
2023-01-09T05:37:06.748Z,984.28
2023-01-09T05:38:06.878Z,984.26
2023-01-09T05:39:06.730Z,984.34
2023-01-09T05:40:06.693Z,984.30
2023-01-09T05:41:06.678Z,984.29
2023-01-09T05:42:06.660Z,984.17
2023-01-09T05:43:06.817Z,984.25
2023-01-09T05:44:06.689Z,984.28
2023-01-09T05:45:06.629Z,984.27
2023-01-09T05:46:06.631Z,984.24
2023-01-09T05:47:06.623Z,984.26
2023-01-09T05:48:06.755Z,984.34
2023-01-09T05:49:06.745Z,984.24
2023-01-09T05:50:06.567Z,984.27
2023-01-09T05:51:06.547Z,984.22
2023-01-09T05:52:06.528Z,984.24
2023-01-09T05:53:06.517Z,984.25
2023-01-09T05:54:06.681Z,984.29
2023-01-09T05:55:06.499Z,984.42
2023-01-09T05:56:06.475Z,984.28
2023-01-09T05:57:06.476Z,984.22
2023-01-09T05:58:06.455Z,984.24
2023-01-09T05:59:06.459Z,984.20
2023-01-09T06:00:06.437Z,984.26
2023-01-09T06:01:06.508Z,984.27
2023-01-09T06:02:06.446Z,984.31
2023-01-09T06:03:06.419Z,984.22
2023-01-09T06:04:06.397Z,984.27
2023-01-09T06:05:06.364Z,984.22
2023-01-09T06:06:06.353Z,984.26
2023-01-09T06:07:06.343Z,984.15
2023-01-09T06:08:06.334Z,984.12
2023-01-09T06:09:06.330Z,984.13
2023-01-09T06:10:06.311Z,984.09
2023-01-09T06:11:06.481Z,984.17
2023-01-09T06:12:06.273Z,984.19
2023-01-09T06:13:06.267Z,984.26
2023-01-09T06:14:06.240Z,984.31
2023-01-09T06:15:08.798Z,984.20
2023-01-09T06:16:06.337Z,984.28
2023-01-09T06:17:06.214Z,984.22
2023-01-09T06:18:06.207Z,984.27
2023-01-09T06:19:06.181Z,984.36
2023-01-09T06:20:06.209Z,984.25
2023-01-09T06:21:06.167Z,984.32
2023-01-09T06:22:06.131Z,984.32
2023-01-09T06:23:06.119Z,984.33
2023-01-09T06:24:06.109Z,984.28
2023-01-09T06:25:06.102Z,984.37
2023-01-09T06:26:06.108Z,984.37
2023-01-09T06:27:06.080Z,984.39
2023-01-09T06:28:06.062Z,984.43
2023-01-09T06:29:06.051Z,984.38
2023-01-09T06:30:06.037Z,984.38
2023-01-09T06:31:06.132Z,984.42
2023-01-09T06:32:06.007Z,984.41
2023-01-09T06:33:05.999Z,984.45
2023-01-09T06:34:05.977Z,984.44
2023-01-09T06:35:05.977Z,984.44
2023-01-09T06:36:05.990Z,984.45
2023-01-09T06:37:06.117Z,984.52
2023-01-09T06:38:05.942Z,984.43
2023-01-09T06:39:05.926Z,984.42
2023-01-09T06:40:05.931Z,984.42
2023-01-09T06:41:05.893Z,984.36
2023-01-09T06:42:05.874Z,984.49
2023-01-09T06:43:05.895Z,984.41
2023-01-09T06:44:05.870Z,984.49
2023-01-09T06:45:06.012Z,984.35
2023-01-09T06:46:05.890Z,984.42
2023-01-09T06:47:05.821Z,984.43
2023-01-09T06:48:05.794Z,984.33
2023-01-09T06:49:05.804Z,984.41
2023-01-09T06:50:05.768Z,984.44
2023-01-09T06:51:05.955Z,984.46
2023-01-09T06:52:05.844Z,984.42
2023-01-09T06:53:05.750Z,984.44
2023-01-09T06:54:05.728Z,984.49
2023-01-09T06:55:05.719Z,984.34
2023-01-09T06:56:05.865Z,984.54
2023-01-09T06:57:05.683Z,984.47
2023-01-09T06:58:05.662Z,984.48
2023-01-09T06:59:05.658Z,984.52
2023-01-09T07:00:05.643Z,984.55
2023-01-09T07:01:05.913Z,984.43
2023-01-09T07:02:05.711Z,984.49
2023-01-09T07:03:05.613Z,984.49
2023-01-09T07:04:05.608Z,984.48
2023-01-09T07:05:05.583Z,984.47
2023-01-09T07:06:05.612Z,984.43
2023-01-09T07:07:05.730Z,984.42
2023-01-09T07:08:05.532Z,984.46
2023-01-09T07:09:05.531Z,984.50
2023-01-09T07:10:05.522Z,984.46
2023-01-09T07:11:05.515Z,984.43
2023-01-09T07:12:05.501Z,984.46
2023-01-09T07:13:05.647Z,984.45
2023-01-09T07:14:05.458Z,984.51
2023-01-09T07:15:05.487Z,984.40
2023-01-09T07:16:05.541Z,984.40
2023-01-09T07:17:05.591Z,984.44
2023-01-09T07:18:05.409Z,984.44
2023-01-09T07:19:05.432Z,984.34
2023-01-09T07:20:05.379Z,984.42
2023-01-09T07:21:05.368Z,984.42
2023-01-09T07:22:05.521Z,984.44
2023-01-09T07:23:05.363Z,984.44
2023-01-09T07:24:05.316Z,984.47
2023-01-09T07:25:05.487Z,984.46
2023-01-09T07:26:05.302Z,984.51
2023-01-09T07:27:05.289Z,984.40
2023-01-09T07:28:05.287Z,984.49
2023-01-09T07:29:05.258Z,984.48
2023-01-09T07:30:05.432Z,984.50
2023-01-09T07:31:05.300Z,984.44
2023-01-09T07:32:05.224Z,984.43
2023-01-09T07:33:05.255Z,984.50
2023-01-09T07:34:05.199Z,984.45
2023-01-09T07:35:05.362Z,984.43
2023-01-09T07:36:05.200Z,984.45
2023-01-09T07:37:05.150Z,984.44
2023-01-09T07:38:05.140Z,984.39
2023-01-09T07:39:05.127Z,984.47
2023-01-09T07:40:05.307Z,984.49
2023-01-09T07:41:05.117Z,984.52
2023-01-09T07:42:05.269Z,984.44
2023-01-09T07:43:05.093Z,984.49
2023-01-09T07:44:05.083Z,984.45
2023-01-09T07:45:05.057Z,984.53
2023-01-09T07:46:05.077Z,984.48
2023-01-09T07:47:05.209Z,984.52
2023-01-09T07:48:05.028Z,984.51
2023-01-09T07:49:05.014Z,984.54
2023-01-09T07:50:05.000Z,984.55
2023-01-09T07:51:04.968Z,984.57
2023-01-09T07:52:04.958Z,984.59
2023-01-09T07:53:04.988Z,984.47
2023-01-09T07:54:04.940Z,984.59
2023-01-09T07:55:04.942Z,984.57
2023-01-09T07:56:04.912Z,984.54
2023-01-09T07:57:04.900Z,984.59
2023-01-09T07:58:04.872Z,984.57
2023-01-09T07:59:04.881Z,984.50
2023-01-09T08:00:05.062Z,984.51
2023-01-09T08:01:04.887Z,984.59
2023-01-09T08:02:04.875Z,984.62
2023-01-09T08:03:04.894Z,984.64
2023-01-09T08:04:04.798Z,984.52
2023-01-09T08:05:04.968Z,984.59
2023-01-09T08:06:04.777Z,984.58
2023-01-09T08:07:04.947Z,984.57
2023-01-09T08:08:04.767Z,984.55
2023-01-09T08:09:04.747Z,984.53
2023-01-09T08:10:04.742Z,984.56
2023-01-09T08:11:05.442Z,984.55
2023-01-09T08:12:04.878Z,984.52
2023-01-09T08:13:04.692Z,984.58
2023-01-09T08:14:04.676Z,984.61
2023-01-09T08:15:04.703Z,984.56
2023-01-09T08:16:04.679Z,984.65
2023-01-09T08:17:04.813Z,984.73
2023-01-09T08:18:04.615Z,984.72
2023-01-09T08:19:04.606Z,984.62
2023-01-09T08:20:04.608Z,984.65
2023-01-09T08:21:04.582Z,984.64
2023-01-09T08:22:04.745Z,984.73
2023-01-09T08:23:04.555Z,984.62
2023-01-09T08:24:04.542Z,984.70
2023-01-09T08:25:04.533Z,984.70
2023-01-09T08:26:04.527Z,984.56
2023-01-09T08:27:04.495Z,984.70
2023-01-09T08:28:04.653Z,984.59
2023-01-09T08:29:04.504Z,984.65
2023-01-09T08:30:04.459Z,984.68
2023-01-09T08:31:04.571Z,984.74
2023-01-09T08:32:04.604Z,984.66
2023-01-09T08:33:04.424Z,984.69
2023-01-09T08:34:04.391Z,984.74
2023-01-09T08:35:04.445Z,984.72
2023-01-09T08:36:04.398Z,984.68
2023-01-09T08:37:04.557Z,984.76
2023-01-09T08:38:04.370Z,984.75
2023-01-09T08:39:04.357Z,984.64
2023-01-09T08:40:04.345Z,984.68
2023-01-09T08:41:04.323Z,984.63
2023-01-09T08:42:04.317Z,984.69
2023-01-09T08:43:04.306Z,984.71
2023-01-09T08:44:04.304Z,984.65
2023-01-09T08:45:04.264Z,984.72
2023-01-09T08:46:04.477Z,984.79
2023-01-09T08:47:04.231Z,984.75
2023-01-09T08:48:04.249Z,984.74
2023-01-09T08:49:04.200Z,984.81
2023-01-09T08:50:04.199Z,984.73
2023-01-09T08:51:04.380Z,984.75
2023-01-09T08:52:04.176Z,984.70
2023-01-09T08:53:04.164Z,984.77
2023-01-09T08:54:04.139Z,984.77
2023-01-09T08:55:04.128Z,984.79
2023-01-09T08:56:04.332Z,984.78
2023-01-09T08:57:04.096Z,984.86
2023-01-09T08:58:04.100Z,984.93
2023-01-09T08:59:04.079Z,984.81
2023-01-09T09:00:04.069Z,984.84
2023-01-09T09:01:04.216Z,984.83
2023-01-09T09:02:04.041Z,984.79
2023-01-09T09:03:04.085Z,984.80
2023-01-09T09:04:04.008Z,984.81
2023-01-09T09:05:04.015Z,984.80
2023-01-09T09:06:04.007Z,984.80
2023-01-09T09:07:03.986Z,984.81
2023-01-09T09:08:03.978Z,984.84
2023-01-09T09:09:03.954Z,984.84
2023-01-09T09:10:03.957Z,984.85
2023-01-09T09:11:04.100Z,984.95
2023-01-09T09:12:03.916Z,984.86
2023-01-09T09:13:03.907Z,984.90
2023-01-09T09:14:03.885Z,984.96
2023-01-09T09:15:03.865Z,984.91
2023-01-09T09:16:04.067Z,984.92
2023-01-09T09:17:04.030Z,984.86
2023-01-09T09:18:03.844Z,984.90
2023-01-09T09:19:03.827Z,985.01
2023-01-09T09:20:03.803Z,984.97
2023-01-09T09:21:03.976Z,985.05
2023-01-09T09:22:03.773Z,985.07
2023-01-09T09:23:03.771Z,985.13
2023-01-09T09:24:03.742Z,985.09
2023-01-09T09:25:03.753Z,985.06
2023-01-09T09:26:04.011Z,985.13
2023-01-09T09:27:03.738Z,985.13
2023-01-09T09:28:03.695Z,985.12
2023-01-09T09:29:03.860Z,985.11
2023-01-09T09:30:03.663Z,985.10
2023-01-09T09:31:03.682Z,985.11
2023-01-09T09:32:03.829Z,985.14
2023-01-09T09:33:03.652Z,985.18
2023-01-09T09:34:03.659Z,985.19
2023-01-09T09:35:03.601Z,985.21
2023-01-09T09:36:03.589Z,985.22
2023-01-09T09:37:03.644Z,985.24
2023-01-09T09:38:05.398Z,985.26
2023-01-09T09:39:03.649Z,985.16
2023-01-09T09:40:13.546Z,985.18
2023-01-09T09:41:04.530Z,985.28
2023-01-09T09:42:03.519Z,985.27
2023-01-09T09:43:03.516Z,985.28
2023-01-09T09:44:03.539Z,985.28
2023-01-09T09:45:03.496Z,985.29
2023-01-09T09:46:03.656Z,985.36
2023-01-09T09:47:03.449Z,985.38
2023-01-09T09:48:03.439Z,985.43
2023-01-09T09:49:03.418Z,985.44
2023-01-09T09:50:03.400Z,985.42
2023-01-09T09:51:03.586Z,985.45
2023-01-09T09:52:03.384Z,985.53
2023-01-09T09:53:03.388Z,985.49
2023-01-09T09:54:03.374Z,985.49
2023-01-09T09:55:03.348Z,985.52
2023-01-09T09:56:03.357Z,985.56
2023-01-09T09:57:03.327Z,985.59
2023-01-09T09:58:03.497Z,985.59
2023-01-09T09:59:03.292Z,985.56
2023-01-09T10:00:03.445Z,985.62
2023-01-09T10:01:03.261Z,985.60
2023-01-09T10:02:03.313Z,985.63
2023-01-09T10:03:03.265Z,985.65
2023-01-09T10:04:03.285Z,985.56
2023-01-09T10:05:03.223Z,985.60
2023-01-09T10:06:03.211Z,985.53
2023-01-09T10:07:03.355Z,985.54
2023-01-09T10:08:14.861Z,985.55
2023-01-09T10:09:04.156Z,985.55
2023-01-09T10:10:03.151Z,985.60
2023-01-09T10:11:03.133Z,985.57
2023-01-09T10:12:03.121Z,985.57
2023-01-09T10:13:03.288Z,985.60
2023-01-09T10:14:05.944Z,985.62
2023-01-09T10:15:03.097Z,985.53
2023-01-09T10:16:03.087Z,985.55
2023-01-09T10:17:03.056Z,985.57
2023-01-09T10:18:03.201Z,985.58
2023-01-09T10:19:03.113Z,985.70
2023-01-09T10:20:03.020Z,985.63
2023-01-09T10:21:03.038Z,985.59
2023-01-09T10:22:02.991Z,985.63
2023-01-09T10:23:02.981Z,985.62
2023-01-09T10:24:03.140Z,985.65
2023-01-09T10:25:02.950Z,985.60
2023-01-09T10:26:02.926Z,985.66
2023-01-09T10:27:02.929Z,985.64
2023-01-09T10:28:02.903Z,985.64
2023-01-09T10:29:02.897Z,985.60
2023-01-09T10:30:02.898Z,985.63
2023-01-09T10:31:02.916Z,985.64
2023-01-09T10:32:02.851Z,985.68
2023-01-09T10:33:02.861Z,985.71
2023-01-09T10:34:02.830Z,985.62
2023-01-09T10:35:02.998Z,985.63
2023-01-09T10:36:02.810Z,985.67
2023-01-09T10:37:02.855Z,985.69
2023-01-09T10:38:02.779Z,985.54
2023-01-09T10:39:02.770Z,985.58
2023-01-09T10:40:02.921Z,985.64
2023-01-09T10:41:02.948Z,985.53
2023-01-09T10:42:02.728Z,985.59
2023-01-09T10:43:02.741Z,985.64
2023-01-09T10:44:02.703Z,985.62
2023-01-09T10:45:02.691Z,985.59
2023-01-09T10:46:02.687Z,985.67
2023-01-09T10:47:02.893Z,985.70
2023-01-09T10:48:02.647Z,985.69
2023-01-09T10:49:02.635Z,985.63
2023-01-09T10:50:02.623Z,985.77
2023-01-09T10:51:02.624Z,985.71
2023-01-09T10:52:02.767Z,985.74
2023-01-09T10:53:02.595Z,985.74
2023-01-09T10:54:02.560Z,985.72
2023-01-09T10:55:02.574Z,985.71
2023-01-09T10:56:02.545Z,985.76
2023-01-09T10:57:02.693Z,985.78
2023-01-09T10:58:02.547Z,985.74
2023-01-09T10:59:02.504Z,985.83
2023-01-09T11:00:02.483Z,985.73
2023-01-09T11:01:02.481Z,985.72
2023-01-09T11:02:02.672Z,985.82
2023-01-09T11:03:02.544Z,985.76
2023-01-09T11:04:02.436Z,985.73
2023-01-09T11:05:02.443Z,985.80
2023-01-09T11:06:02.489Z,985.78
2023-01-09T11:07:02.528Z,985.79
2023-01-09T11:08:02.422Z,985.78
2023-01-09T11:09:02.452Z,985.80
2023-01-09T11:10:02.437Z,985.80
2023-01-09T11:11:02.349Z,985.80
2023-01-09T11:12:02.502Z,985.76
2023-01-09T11:13:02.510Z,985.76
2023-01-09T11:14:02.297Z,985.78
2023-01-09T11:15:02.296Z,985.81
2023-01-09T11:16:02.397Z,985.82
2023-01-09T11:17:02.288Z,985.68
2023-01-09T11:18:02.510Z,985.78
2023-01-09T11:19:02.263Z,985.80
2023-01-09T11:20:02.234Z,985.82
2023-01-09T11:21:02.213Z,985.76
2023-01-09T11:22:02.187Z,985.69
2023-01-09T11:23:02.197Z,985.82
2023-01-09T11:24:02.351Z,985.73
2023-01-09T11:25:02.186Z,985.72
2023-01-09T11:26:02.327Z,985.76
2023-01-09T11:27:02.149Z,985.83
2023-01-09T11:28:02.120Z,985.83
2023-01-09T11:29:02.117Z,985.76
2023-01-09T11:30:02.086Z,985.87
2023-01-09T11:31:02.177Z,985.82
2023-01-09T11:32:02.245Z,985.81
2023-01-09T11:33:02.068Z,985.72
2023-01-09T11:34:02.059Z,985.76
2023-01-09T11:35:02.034Z,985.86
2023-01-09T11:36:02.105Z,985.89
2023-01-09T11:37:02.215Z,985.79
2023-01-09T11:38:02.254Z,985.76
2023-01-09T11:39:01.964Z,985.82
2023-01-09T11:40:01.996Z,985.87
2023-01-09T11:41:01.963Z,985.84
2023-01-09T11:42:01.970Z,985.86
2023-01-09T11:43:02.112Z,985.79
2023-01-09T11:44:01.913Z,985.80
2023-01-09T11:45:01.891Z,985.80
2023-01-09T11:46:02.243Z,985.89
2023-01-09T11:47:01.967Z,985.77
2023-01-09T11:48:02.135Z,985.91
2023-01-09T11:49:01.845Z,985.86
2023-01-09T11:50:01.833Z,985.89
2023-01-09T11:51:01.815Z,985.89
2023-01-09T11:52:01.802Z,985.93
2023-01-09T11:53:01.791Z,985.91
2023-01-09T11:54:01.799Z,985.93
2023-01-09T11:55:01.769Z,985.87
2023-01-09T11:56:01.764Z,986.00
2023-01-09T11:57:01.919Z,985.95
2023-01-09T11:58:01.727Z,985.97
2023-01-09T11:59:01.710Z,985.86
2023-01-09T12:00:01.727Z,986.00
2023-01-09T12:01:01.680Z,986.02
2023-01-09T12:02:01.774Z,985.97
2023-01-09T12:03:01.696Z,986.03
2023-01-09T12:04:01.648Z,986.09
2023-01-09T12:05:01.644Z,986.18
2023-01-09T12:06:01.642Z,986.02
2023-01-09T12:07:01.642Z,986.04
2023-01-09T12:08:01.599Z,986.10
2023-01-09T12:09:01.592Z,986.29
2023-01-09T12:10:01.838Z,986.19
2023-01-09T12:11:01.550Z,986.20
2023-01-09T12:12:01.559Z,986.22
2023-01-09T12:13:01.536Z,986.13
2023-01-09T12:14:01.517Z,986.15
2023-01-09T12:15:01.675Z,986.16
2023-01-09T12:16:01.528Z,986.24
2023-01-09T12:17:01.476Z,986.29
2023-01-09T12:18:01.465Z,986.33
2023-01-09T12:19:01.455Z,986.33
2023-01-09T12:20:01.614Z,986.35
2023-01-09T12:21:01.603Z,986.34
2023-01-09T12:22:01.448Z,986.31
2023-01-09T12:23:01.429Z,986.41
2023-01-09T12:24:01.427Z,986.38
2023-01-09T12:25:01.543Z,986.36
2023-01-09T12:26:01.368Z,986.37
2023-01-09T12:27:01.348Z,986.40
2023-01-09T12:28:01.355Z,986.41